Lyndell, Pennsylvania
Current Conditions -  °F | °C
As of 3:15 AM on Thursday 29 Jan 2015 (Local Time) from KMQS Reporting Station
Clear Clear  
Wind Chill: 15°   Ceiling: Unl
Heat Index: 21°   Visibility: 10mi
Dew Point:   Wind: 5mph
Humidity: 50%   Direction: 330°NNW
Pressure: 30.28"   Gusts: NA
Location:  40.06°N, 75.74°W
Report Text: KMQS 290815Z AUTO 33004KT 10SM CLR M06/M15 A3028 RMK AO2
Loading
Personal Weather Stations






























Interactive Weather Map New forecast layout! Learn more

10-Day Weather Forecast

Advertisements
Track Severe Weather on mobile